Long Beach, CA

3:31 AM PDT on September 21, 2014 (GMT -0700)
Long Beach | Change Station
CLOSE
Current Station
Personal Weather Station
Location: Long Beach, CA
Elevation: 20 ft
Nearby Weather Stations

Elev 20 ft 33.80 °N, 118.09 °W | Updated 19 seconds ago

Overcast
Overcast
66.4 °F
Feels Like 66.4 °F
N
0.0
Wind Variable Wind from WNW
Gusts 0.0 mph

Today
High -- | Low -- °F
--% Chance of Precip.
Yesterday
High -- | Low -- °F
Precip. -- in
6:40 AM 6:50 PM
Waning Crescent, 7% visible
Pressure 29.94 in
Visibility 10.0 miles
Clouds Overcast 2500 ft
Dew Point 63 °F
Humidity 89%
Rainfall 0.00 in
Snow Depth 0 in , 1 in , 0 in
UV 0 out of 12
Pollen 6.80 out of 12
Ozone Good
Flu Activity Not available.
METAR KLGB 210953Z 00000KT 10SM OVC025 20/17 A2994 RMK AO2 SLP137 T02000167

More Conditions Fewer Conditions

Pressure 29.94 in
Visibility 10.0 miles
Clouds Overcast 2500 ft
Dew Point 63 °F
Humidity 89%
Rainfall 0.00 in
Snow Depth 0 in , 1 in , 0 in
UV 0 out of 12
Pollen 6.80 out of 12
Ozone Good
Flu Activity Not available.
METAR KLGB 210953Z 00000KT 10SM OVC025 20/17 A2994 RMK AO2 SLP137 T02000167

More Conditions Fewer Conditions

10-Day Weather Forecast

Almanac

Astronomy

Sep. 21, 2014 Rise Set
Actual Time 6:40 AM PDT 6:50 PM PDT
Civil Twilight 6:15 AM PDT 7:15 PM PDT
Nautical Twilight 5:46 AM PDT 7:44 PM PDT
Astronomical Twilight 5:16 AM PDT 8:13 PM PDT
Moon 4:23 AM PDT 5:25 PM PDT
Length of Visible Light 13h 00m
Length of Day
12h 10m
Tomorrow will be 2m 5s shorter.
Waning Crescent, 7% of the Moon is Illuminated
Today
Waning Crescent
Sep 24
New
Oct 1
First Quarter
Oct 8
Full
Oct 15
Last Quarter

Today's Extremes

State Highs State Lows

Community

WunderPhotos

Upload Photos

1,755,108 photos uploaded!

Nearby

Air Quality

  Air Quality AQ Index Pollutant
Yesterday Good
OZONE
Current Good
OZONE
Sunday Good
OZONE
Sunday Good
PM10
Sunday Good
CO
Sunday Good
NO2

Snow Depth

Station Depth Elevation
Forestdale Creek 0 in 8029 ft
CSS Lab 1 in 6900 ft
Ebbetts Pass 0 in 8700 ft
Summit Meadow 0 in 9122 ft
Monitor Pass 1 in 8350 ft

Earthquake Activity

City Distance Mag. Time & Date
Aguanga, California 81 miles 2.5 1:38 AM PDT
2014-09-19
Minimum magnitude displayed is 2.5.

Coastal Water Temperatures

Place Temperature
Santa Monica Pier 69.1 °F
Los Angeles, CA 66.9 °F
La Jolla, CA 66.9 °F

Nearby Weather Stations